Time;durP1;ratioP1;P1;durP2;ratioP2;P2;SDS_P1;SDS_P2;PMS_P1;PMS_P2;Temp;Humidity;BMP_temperature;BMP_pressure;BME280_temperature;BME280_humidity;BME280_pressure;Samples;Min_cycle;Max_cycle;Signal;HPM_P1;HPM_P2
2023/10/23 00:00:27;;;;;;;6.00;5.22;;;;;;;;;;5090231;28;20040;-69
2023/10/23 00:02:53;;;;;;;7.88;5.30;;;;;;;;;;5091699;28;20036;-70
2023/10/23 00:05:19;;;;;;;6.10;5.00;;;;;;;;;;5089922;28;20119;-70
2023/10/23 00:07:45;;;;;;;6.80;5.05;;;;;;;;;;5089257;28;20405;-70
2023/10/23 00:10:11;;;;;;;6.05;5.20;;;;;;;;;;5092004;28;20036;-70
2023/10/23 00:12:37;;;;;;;6.43;5.65;;;;;;;;;;5090294;28;20044;-70
2023/10/23 00:15:03;;;;;;;7.90;5.75;;;;;;;;;;5091582;28;20036;-70
2023/10/23 00:17:29;;;;;;;7.00;5.60;;;;;;;;;;5090630;28;20032;-69
2023/10/23 00:19:55;;;;;;;7.38;5.90;;;;;;;;;;5089687;28;20123;-69
2023/10/23 00:22:21;;;;;;;8.50;5.90;;;;;;;;;;5089273;28;20059;-69
2023/10/23 00:24:47;;;;;;;7.57;5.85;;;;;;;;;;5091316;28;20038;-69
2023/10/23 00:27:13;;;;;;;7.35;6.38;;;;;;;;;;5089702;28;20040;-69
2023/10/23 00:29:39;;;;;;;9.32;6.68;;;;;;;;;;5090747;28;20043;-69
2023/10/23 00:32:05;;;;;;;8.30;5.93;;;;;;;;;;5089385;28;20119;-69
2023/10/23 00:34:31;;;;;;;7.90;5.90;;;;;;;;;;5090881;28;20071;-70
2023/10/23 00:36:57;;;;;;;7.40;6.05;;;;;;;;;;5089240;28;20069;-70
2023/10/23 00:39:23;;;;;;;6.13;5.53;;;;;;;;;;5090979;28;20039;-70
2023/10/23 00:41:49;;;;;;;7.65;5.93;;;;;;;;;;5090374;28;20036;-70
2023/10/23 00:44:15;;;;;;;6.95;6.20;;;;;;;;;;5091250;28;20478;-70
2023/10/23 00:46:43;;;;;;;10.80;7.10;;;;;;;;;;5091278;28;20085;-70
2023/10/23 00:49:09;;;;;;;5.68;5.18;;;;;;;;;;5091905;28;20032;-70
2023/10/23 00:51:35;;;;;;;6.22;5.53;;;;;;;;;;5090991;28;20076;-70
2023/10/23 00:54:02;;;;;;;8.52;5.85;;;;;;;;;;5089806;28;20036;-70
2023/10/23 00:56:28;;;;;;;8.93;6.25;;;;;;;;;;5090783;28;20074;-70
2023/10/23 00:58:54;;;;;;;7.72;6.30;;;;;;;;;;5090292;28;20032;-70
2023/10/23 01:01:21;;;;;;;6.13;4.32;;;;;;;;;;5086757;28;20047;-70
2023/10/23 01:03:47;;;;;;;5.18;4.28;;;;;;;;;;5091470;28;20040;-70
2023/10/23 01:06:13;;;;;;;4.43;3.80;;;;;;;;;;5083833;28;20047;-70
2023/10/23 01:08:39;;;;;;;10.90;4.07;;;;;;;;;;5090659;28;20040;-70
2023/10/23 01:11:05;;;;;;;5.28;3.65;;;;;;;;;;5089174;28;20043;-70
2023/10/23 01:13:31;;;;;;;5.55;3.72;;;;;;;;;;5090484;28;20170;-70
2023/10/23 01:15:57;;;;;;;4.28;3.83;;;;;;;;;;5090792;28;20044;-70
2023/10/23 01:18:23;;;;;;;2.92;2.72;;;;;;;;;;5084454;28;20032;-70
2023/10/23 01:20:49;;;;;;;3.47;2.53;;;;;;;;;;5090654;28;20115;-69
2023/10/23 01:23:15;;;;;;;3.20;2.90;;;;;;;;;;5090741;28;20040;-69
2023/10/23 01:25:41;;;;;;;3.90;3.50;;;;;;;;;;5091626;28;20043;-69
2023/10/23 01:28:07;;;;;;;3.70;3.30;;;;;;;;;;5090779;28;20366;-69
2023/10/23 01:30:33;;;;;;;3.88;3.47;;;;;;;;;;5092806;28;20106;-69
2023/10/23 01:32:59;;;;;;;4.55;3.33;;;;;;;;;;5094362;28;20565;-69
2023/10/23 01:35:25;;;;;;;4.60;4.05;;;;;;;;;;5093227;28;20115;-69
2023/10/23 01:37:51;;;;;;;5.53;4.40;;;;;;;;;;5092581;28;20058;-69
2023/10/23 01:40:18;;;;;;;4.88;4.38;;;;;;;;;;5093871;28;20036;-69
2023/10/23 01:42:46;;;;;;;6.45;5.38;;;;;;;;;;5091605;28;20040;-69
2023/10/23 01:45:12;;;;;;;7.53;4.22;;;;;;;;;;5093902;28;20036;-69
2023/10/23 01:47:38;;;;;;;4.60;3.90;;;;;;;;;;5093442;28;20718;-69
2023/10/23 01:50:04;;;;;;;4.20;3.75;;;;;;;;;;5093590;28;20061;-69
2023/10/23 01:52:30;;;;;;;20.45;5.53;;;;;;;;;;5093741;28;20090;-69
2023/10/23 01:54:58;;;;;;;24.52;5.55;;;;;;;;;;5093856;28;20509;-69
2023/10/23 01:57:24;;;;;;;18.33;3.80;;;;;;;;;;5093642;28;20379;-69
2023/10/23 01:59:50;;;;;;;38.08;4.25;;;;;;;;;;5090231;28;20036;-69
2023/10/23 02:02:16;;;;;;;19.13;3.40;;;;;;;;;;5086168;28;20117;-69
2023/10/23 02:04:42;;;;;;;43.47;4.00;;;;;;;;;;5085495;28;20028;-69
2023/10/23 02:07:08;;;;;;;29.80;3.25;;;;;;;;;;5092079;28;20044;-69
2023/10/23 02:09:34;;;;;;;13.52;2.50;;;;;;;;;;5093643;28;20032;-69
2023/10/23 02:12:01;;;;;;;12.68;2.70;;;;;;;;;;5093992;28;20036;-69
2023/10/23 02:14:27;;;;;;;15.05;2.97;;;;;;;;;;5092681;28;20055;-69
2023/10/23 02:16:53;;;;;;;20.60;2.83;;;;;;;;;;5091770;28;20469;-69
2023/10/23 02:19:19;;;;;;;15.68;2.80;;;;;;;;;;5089391;28;20117;-69
2023/10/23 02:21:51;;;;;;;14.68;2.88;;;;;;;;;;5094258;28;20090;-69
2023/10/23 02:24:17;;;;;;;7.93;3.22;;;;;;;;;;5094257;28;20040;-69
2023/10/23 02:26:43;;;;;;;12.00;3.00;;;;;;;;;;5093301;28;20425;-69
2023/10/23 02:29:09;;;;;;;12.68;3.50;;;;;;;;;;5092386;28;20040;-69
2023/10/23 02:31:36;;;;;;;4.28;3.15;;;;;;;;;;5093255;28;20043;-69
2023/10/23 02:34:02;;;;;;;3.15;2.60;;;;;;;;;;5083804;28;20122;-69
2023/10/23 02:36:29;;;;;;;2.10;1.90;;;;;;;;;;5092530;28;20040;-69
2023/10/23 02:38:55;;;;;;;1.90;1.70;;;;;;;;;;5091444;28;20379;-69
2023/10/23 02:41:21;;;;;;;2.72;1.77;;;;;;;;;;5087355;28;20107;-69
2023/10/23 02:43:49;;;;;;;2.55;2.05;;;;;;;;;;5093370;28;20160;-69
2023/10/23 02:46:15;;;;;;;5.53;2.90;;;;;;;;;;5093464;28;20486;-69
2023/10/23 02:48:41;;;;;;;8.98;3.97;;;;;;;;;;5091606;28;20036;-69
2023/10/23 02:51:08;;;;;;;23.77;4.47;;;;;;;;;;5092739;28;20466;-69
2023/10/23 02:53:34;;;;;;;9.70;4.43;;;;;;;;;;5093090;28;20073;-69
2023/10/23 02:56:00;;;;;;;26.10;4.70;;;;;;;;;;5086336;28;20032;-69
2023/10/23 02:58:26;;;;;;;43.22;5.68;;;;;;;;;;5091529;28;20028;-69
2023/10/23 03:00:52;;;;;;;21.17;3.78;;;;;;;;;;5093416;28;20054;-69
2023/10/23 03:03:18;;;;;;;2.70;2.50;;;;;;;;;;5093312;28;20501;-69
2023/10/23 03:05:44;;;;;;;13.93;4.07;;;;;;;;;;5091905;28;20032;-69
2023/10/23 03:08:10;;;;;;;3.30;3.00;;;;;;;;;;5083792;28;20382;-69
2023/10/23 03:10:36;;;;;;;2.50;2.30;;;;;;;;;;5092629;28;20043;-69
2023/10/23 03:13:02;;;;;;;2.30;2.08;;;;;;;;;;5093043;28;20036;-69
2023/10/23 03:15:28;;;;;;;3.72;2.47;;;;;;;;;;5093507;28;20040;-69
2023/10/23 03:17:54;;;;;;;3.58;2.88;;;;;;;;;;5092651;28;20044;-69
2023/10/23 03:20:20;;;;;;;4.20;3.80;;;;;;;;;;5092995;28;20619;-69
2023/10/23 03:22:46;;;;;;;3.30;3.00;;;;;;;;;;5090876;28;20138;-69
2023/10/23 03:25:12;;;;;;;3.60;3.30;;;;;;;;;;5092460;28;20114;-69
2023/10/23 03:27:39;;;;;;;5.75;3.95;;;;;;;;;;5092775;28;20476;-69
2023/10/23 03:30:05;;;;;;;5.95;3.67;;;;;;;;;;5092164;28;20112;-69
2023/10/23 03:32:31;;;;;;;9.32;3.60;;;;;;;;;;5092812;28;20040;-69
2023/10/23 03:35:00;;;;;;;6.45;3.47;;;;;;;;;;5092779;28;20063;-69
2023/10/23 03:37:26;;;;;;;9.95;3.47;;;;;;;;;;5091586;28;20097;-69
2023/10/23 03:39:52;;;;;;;6.18;3.50;;;;;;;;;;5091626;28;20036;-70
2023/10/23 03:42:18;;;;;;;7.75;3.67;;;;;;;;;;5116374;22;20047;-73
2023/10/23 03:44:44;;;;;;;4.22;3.80;;;;;;;;;;5108038;28;20031;-73
2023/10/23 03:47:09;;;;;;;5.32;4.80;;;;;;;;;;5112403;28;20130;-73
2023/10/23 03:49:35;;;;;;;6.75;3.90;;;;;;;;;;5083255;28;20097;-73
2023/10/23 03:52:01;;;;;;;4.40;4.00;;;;;;;;;;5111366;28;20500;-73
2023/10/23 03:54:27;;;;;;;4.82;4.03;;;;;;;;;;5091269;28;20065;-73
2023/10/23 03:56:53;;;;;;;5.60;4.20;;;;;;;;;;5107131;28;20031;-73
2023/10/23 03:59:19;;;;;;;3.10;2.00;;;;;;;;;;5112118;28;20027;-73
2023/10/23 04:01:45;;;;;;;10.02;2.80;;;;;;;;;;5088647;28;20512;-73
2023/10/23 04:04:11;;;;;;;4.50;2.70;;;;;;;;;;5107932;28;20110;-73
2023/10/23 04:06:40;;;;;;;6.75;2.40;;;;;;;;;;5089338;28;20096;-73
2023/10/23 04:09:06;;;;;;;4.57;2.75;;;;;;;;;;5108202;28;20497;-73
2023/10/23 04:11:32;;;;;;;4.57;2.78;;;;;;;;;;5107391;28;20520;-73
2023/10/23 04:13:58;;;;;;;4.90;2.50;;;;;;;;;;5083420;28;20087;-73
2023/10/23 04:16:24;;;;;;;2.60;2.33;;;;;;;;;;5108654;28;20066;-73
2023/10/23 04:18:50;;;;;;;19.38;3.80;;;;;;;;;;5109012;28;20039;-73
2023/10/23 04:21:17;;;;;;;8.85;3.63;;;;;;;;;;5105978;28;20097;-73
2023/10/23 04:23:43;;;;;;;3.63;3.33;;;;;;;;;;5112657;28;20093;-73
2023/10/23 04:26:09;;;;;;;5.53;4.05;;;;;;;;;;5103961;28;20039;-73
2023/10/23 04:28:36;;;;;;;4.65;3.45;;;;;;;;;;5106761;28;20032;-73
2023/10/23 04:31:03;;;;;;;3.72;3.33;;;;;;;;;;5103283;28;20098;-73
2023/10/23 04:33:29;;;;;;;5.43;3.75;;;;;;;;;;5106872;28;20071;-73
2023/10/23 04:35:56;;;;;;;7.80;4.50;;;;;;;;;;5102945;28;20028;-73
2023/10/23 04:38:23;;;;;;;5.18;3.60;;;;;;;;;;5104854;28;20059;-73
2023/10/23 04:40:50;;;;;;;7.50;4.57;;;;;;;;;;5111004;28;20039;-73
2023/10/23 04:43:16;;;;;;;2.30;2.10;;;;;;;;;;5083815;28;20535;-73
2023/10/23 04:45:42;;;;;;;3.42;2.40;;;;;;;;;;5111408;28;20032;-73
2023/10/23 04:48:09;;;;;;;2.30;2.10;;;;;;;;;;5111437;28;20093;-73
2023/10/23 04:50:35;;;;;;;3.60;3.30;;;;;;;;;;5111218;28;20038;-73
2023/10/23 04:53:02;;;;;;;7.35;4.10;;;;;;;;;;5103632;28;20470;-73
2023/10/23 04:55:34;;;;;;;13.50;4.97;;;;;;;;;;5111968;28;20043;-73
2023/10/23 04:58:00;;;;;;;14.25;5.30;;;;;;;;;;5109575;28;20427;-73
2023/10/23 05:00:26;;;;;;;15.65;4.47;;;;;;;;;;5112799;28;20027;-73
2023/10/23 05:02:52;;;;;;;4.70;4.03;;;;;;;;;;5111290;28;20039;-73
2023/10/23 05:05:18;;;;;;;5.45;4.28;;;;;;;;;;5106143;28;20092;-73
2023/10/23 05:07:44;;;;;;;7.18;4.25;;;;;;;;;;5105355;28;20600;-73
2023/10/23 05:10:11;;;;;;;6.72;3.67;;;;;;;;;;5092093;28;20040;-73
2023/10/23 05:12:37;;;;;;;5.07;3.60;;;;;;;;;;5106976;28;20048;-73
2023/10/23 05:15:03;;;;;;;3.70;3.00;;;;;;;;;;5114827;28;20042;-73
2023/10/23 05:17:29;;;;;;;13.10;3.40;;;;;;;;;;5109269;28;20150;-73
2023/10/23 05:19:55;;;;;;;3.78;2.78;;;;;;;;;;5087933;28;20486;-73
2023/10/23 05:22:21;;;;;;;6.00;3.20;;;;;;;;;;5102073;28;20090;-73
2023/10/23 05:24:48;;;;;;;8.85;3.60;;;;;;;;;;5092401;28;20043;-73
2023/10/23 05:27:14;;;;;;;12.80;3.72;;;;;;;;;;5088183;28;20439;-73
2023/10/23 05:29:40;;;;;;;10.63;3.63;;;;;;;;;;5091269;28;20578;-72
2023/10/23 05:32:06;;;;;;;10.60;4.20;;;;;;;;;;5101624;28;20027;-72
2023/10/23 05:34:33;;;;;;;4.57;3.42;;;;;;;;;;5102247;28;20054;-72
2023/10/23 05:36:59;;;;;;;7.40;4.20;;;;;;;;;;5106858;28;20116;-72
2023/10/23 05:39:25;;;;;;;7.88;4.00;;;;;;;;;;5112937;28;20040;-72
2023/10/23 05:41:51;;;;;;;4.72;4.25;;;;;;;;;;5111199;28;20032;-73
2023/10/23 05:44:17;;;;;;;4.35;3.92;;;;;;;;;;5074395;28;20410;-73
2023/10/23 05:46:43;;;;;;;17.30;4.78;;;;;;;;;;5096437;28;20053;-73
2023/10/23 05:49:09;;;;;;;35.45;5.68;;;;;;;;;;5107416;28;20114;-73
2023/10/23 05:51:35;;;;;;;13.38;3.88;;;;;;;;;;5103324;28;20036;-73
2023/10/23 05:54:02;;;;;;;6.38;4.28;;;;;;;;;;5110436;28;20469;-73
2023/10/23 05:56:28;;;;;;;5.85;3.85;;;;;;;;;;5103768;28;20043;-73
2023/10/23 05:58:54;;;;;;;6.10;4.50;;;;;;;;;;5105707;28;20028;-73
2023/10/23 06:01:20;;;;;;;6.05;5.10;;;;;;;;;;5072316;28;20070;-73
2023/10/23 06:03:46;;;;;;;7.55;4.25;;;;;;;;;;5111043;28;20039;-73
2023/10/23 06:06:13;;;;;;;9.15;5.22;;;;;;;;;;5109601;28;20531;-73
2023/10/23 06:08:39;;;;;;;9.05;5.30;;;;;;;;;;5105413;28;20040;-73
2023/10/23 06:11:08;;;;;;;11.80;5.47;;;;;;;;;;5102476;28;20035;-73
2023/10/23 06:13:34;;;;;;;19.95;6.13;;;;;;;;;;5101971;28;20127;-73
2023/10/23 06:16:04;;;;;;;29.23;6.13;;;;;;;;;;5105662;28;20115;-73
2023/10/23 06:18:31;;;;;;;19.70;7.05;;;;;;;;;;5105298;28;20035;-73
2023/10/23 06:20:59;;;;;;;20.05;6.53;;;;;;;;;;5089320;28;20051;-73
2023/10/23 06:23:25;;;;;;;23.73;5.95;;;;;;;;;;5102451;28;20433;-73
2023/10/23 06:25:55;;;;;;;17.42;6.00;;;;;;;;;;5109319;28;20122;-73
2023/10/23 06:28:21;;;;;;;80.25;9.23;;;;;;;;;;5107752;28;20036;-73
2023/10/23 06:30:47;;;;;;;58.33;8.02;;;;;;;;;;5106740;28;20059;-73
2023/10/23 06:33:13;;;;;;;39.78;7.72;;;;;;;;;;5104882;28;20075;-73
2023/10/23 06:35:39;;;;;;;69.05;8.95;;;;;;;;;;5099910;28;20042;-73
2023/10/23 06:38:05;;;;;;;93.22;10.68;;;;;;;;;;5088528;28;20085;-73
2023/10/23 06:40:31;;;;;;;63.95;8.60;;;;;;;;;;5100499;28;20107;-73
2023/10/23 06:42:57;;;;;;;79.35;9.40;;;;;;;;;;5087144;28;20054;-73
2023/10/23 06:45:23;;;;;;;103.32;10.23;;;;;;;;;;5095297;28;20493;-73
2023/10/23 06:47:50;;;;;;;70.50;9.73;;;;;;;;;;5104456;28;20036;-73
2023/10/23 06:50:16;;;;;;;84.05;9.60;;;;;;;;;;5094335;28;20032;-73
2023/10/23 06:52:45;;;;;;;62.83;10.02;;;;;;;;;;5105969;28;20374;-73
2023/10/23 06:55:11;;;;;;;50.50;8.55;;;;;;;;;;5091031;28;20081;-73
2023/10/23 06:57:38;;;;;;;60.22;10.13;;;;;;;;;;5089325;28;20252;-73
2023/10/23 07:00:06;;;;;;;27.58;8.50;;;;;;;;;;5107706;28;20035;-73
2023/10/23 07:02:32;;;;;;;25.40;7.60;;;;;;;;;;5110717;28;20047;-73
2023/10/23 07:04:58;;;;;;;17.60;7.97;;;;;;;;;;5109512;28;20132;-72
2023/10/23 07:07:24;;;;;;;49.65;9.27;;;;;;;;;;5091205;28;20489;-72
2023/10/23 07:09:53;;;;;;;41.42;7.60;;;;;;;;;;5109776;28;20085;-72
2023/10/23 07:12:19;;;;;;;15.48;6.07;;;;;;;;;;5112072;28;20044;-72
2023/10/23 07:14:45;;;;;;;13.07;5.75;;;;;;;;;;5112770;28;20374;-72
2023/10/23 07:17:11;;;;;;;9.10;5.47;;;;;;;;;;5103972;28;20035;-73
2023/10/23 07:19:37;;;;;;;11.48;5.80;;;;;;;;;;5113037;28;20035;-73
2023/10/23 07:22:03;;;;;;;10.70;5.53;;;;;;;;;;5109700;28;20592;-73
2023/10/23 07:24:29;;;;;;;30.27;6.15;;;;;;;;;;5107370;28;20036;-73
2023/10/23 07:26:55;;;;;;;21.73;6.35;;;;;;;;;;5111640;28;20038;-73
2023/10/23 07:29:21;;;;;;;14.05;6.18;;;;;;;;;;5112997;28;20035;-73
2023/10/23 07:31:47;;;;;;;29.15;6.95;;;;;;;;;;5110746;28;20039;-73
2023/10/23 07:34:13;;;;;;;50.17;8.48;;;;;;;;;;5093632;28;20397;-73
2023/10/23 07:36:40;;;;;;;21.63;7.65;;;;;;;;;;5107315;28;20474;-73
2023/10/23 07:39:07;;;;;;;17.52;6.47;;;;;;;;;;5109944;28;20051;-72
2023/10/23 07:41:33;;;;;;;25.00;7.50;;;;;;;;;;5103934;28;20059;-72
2023/10/23 07:43:59;;;;;;;45.53;7.35;;;;;;;;;;5104192;28;20058;-72
2023/10/23 07:46:25;;;;;;;12.73;7.38;;;;;;;;;;5109864;28;20040;-73
2023/10/23 07:48:51;;;;;;;11.20;7.57;;;;;;;;;;5112615;28;20512;-73
2023/10/23 07:51:17;;;;;;;10.98;7.70;;;;;;;;;;5107962;28;20454;-73
2023/10/23 07:53:43;;;;;;;36.03;9.57;;;;;;;;;;5109203;28;20043;-73
2023/10/23 07:56:09;;;;;;;22.63;8.27;;;;;;;;;;5111007;28;20036;-73
2023/10/23 07:58:35;;;;;;;33.58;7.63;;;;;;;;;;5106086;28;20028;-73
2023/10/23 08:01:05;;;;;;;36.03;8.10;;;;;;;;;;5098290;28;20040;-73
2023/10/23 08:03:31;;;;;;;16.80;7.97;;;;;;;;;;5098901;28;20039;-73
2023/10/23 08:05:57;;;;;;;23.80;8.30;;;;;;;;;;5097095;28;20075;-73
2023/10/23 08:08:23;;;;;;;22.80;8.93;;;;;;;;;;5099401;28;20074;-73
2023/10/23 08:10:49;;;;;;;32.20;9.30;;;;;;;;;;5112181;28;20487;-73
2023/10/23 08:13:15;;;;;;;43.55;11.00;;;;;;;;;;5096624;28;20040;-73
2023/10/23 08:15:43;;;;;;;37.08;10.80;;;;;;;;;;5111142;28;20059;-73
2023/10/23 08:18:09;;;;;;;62.95;12.60;;;;;;;;;;5104969;28;20044;-73
2023/10/23 08:20:35;;;;;;;48.38;12.45;;;;;;;;;;5111934;28;20035;-73
2023/10/23 08:23:01;;;;;;;42.47;12.35;;;;;;;;;;5107520;28;20177;-74
2023/10/23 08:25:27;;;;;;;57.55;12.85;;;;;;;;;;5112312;28;20036;-73
2023/10/23 08:27:53;;;;;;;69.63;14.27;;;;;;;;;;5104244;28;20417;-73
2023/10/23 08:30:19;;;;;;;138.75;18.45;;;;;;;;;;5112078;28;20039;-73
2023/10/23 08:32:45;;;;;;;222.52;24.23;;;;;;;;;;5111203;28;20192;-73
2023/10/23 08:35:11;;;;;;;61.78;15.48;;;;;;;;;;5111987;28;20501;-73
2023/10/23 08:37:37;;;;;;;100.03;17.42;;;;;;;;;;5113791;28;20027;-74
2023/10/23 08:40:06;;;;;;;149.45;21.05;;;;;;;;;;5107224;28;20039;-73
2023/10/23 08:42:33;;;;;;;72.07;17.27;;;;;;;;;;5115581;28;20115;-73
2023/10/23 08:44:59;;;;;;;51.22;16.50;;;;;;;;;;5114314;28;20508;-73
2023/10/23 08:47:25;;;;;;;70.72;18.63;;;;;;;;;;5115792;28;20024;-73
2023/10/23 08:49:52;;;;;;;34.97;16.98;;;;;;;;;;5114289;28;20118;-73
2023/10/23 08:52:20;;;;;;;44.67;18.60;;;;;;;;;;5113633;28;20047;-73
2023/10/23 08:54:47;;;;;;;43.15;19.20;;;;;;;;;;5115566;28;20048;-73
2023/10/23 08:57:13;;;;;;;37.33;19.23;;;;;;;;;;5104489;28;20039;-73
2023/10/23 08:59:41;;;;;;;126.28;21.38;;;;;;;;;;5095398;28;20036;-73
2023/10/23 09:02:08;;;;;;;96.88;18.58;;;;;;;;;;5103824;28;20497;-73
2023/10/23 09:04:34;;;;;;;82.97;16.85;;;;;;;;;;5105087;28;20397;-73
2023/10/23 09:07:00;;;;;;;67.70;16.38;;;;;;;;;;5075676;28;20507;-71
2023/10/23 09:09:27;;;;;;;164.55;20.48;;;;;;;;;;5110156;28;20069;-71
2023/10/23 09:11:53;;;;;;;67.47;15.05;;;;;;;;;;5113977;28;20110;-73
2023/10/23 09:14:23;;;;;;;64.20;14.02;;;;;;;;;;5114352;28;20040;-73
2023/10/23 09:16:49;;;;;;;137.57;17.80;;;;;;;;;;5114157;28;20032;-73
2023/10/23 09:19:25;;;;;;;145.25;19.35;;;;;;;;;;5113594;28;20115;-73
2023/10/23 09:21:53;;;;;;;62.38;14.75;;;;;;;;;;5110988;28;20119;-73
2023/10/23 09:24:19;;;;;;;106.20;17.77;;;;;;;;;;5109512;28;20058;-73
2023/10/23 09:26:45;;;;;;;111.35;17.02;;;;;;;;;;5114219;28;20067;-73
2023/10/23 09:29:11;;;;;;;168.98;20.42;;;;;;;;;;5112218;28;20078;-73
2023/10/23 09:31:40;;;;;;;74.35;17.27;;;;;;;;;;5105609;28;20544;-73
2023/10/23 09:34:07;;;;;;;131.63;19.15;;;;;;;;;;5111929;28;20048;-73
2023/10/23 09:36:33;;;;;;;90.93;18.63;;;;;;;;;;5106939;28;20040;-73
2023/10/23 09:39:00;;;;;;;57.60;18.88;;;;;;;;;;5112675;28;20031;-73
2023/10/23 09:41:32;;;;;;;93.85;19.70;;;;;;;;;;5176646;22;21181;-71
2023/10/23 09:44:00;;;;;;;47.28;17.88;;;;;;;;;;5090278;28;20055;-70
2023/10/23 09:46:28;;;;;;;55.78;20.10;;;;;;;;;;5086769;28;20777;-70
2023/10/23 09:48:59;;;;;;;39.33;17.65;;;;;;;;;;5068534;28;20036;-70
2023/10/23 09:51:28;;;;;;;47.40;18.70;;;;;;;;;;5073744;28;20075;-70
2023/10/23 09:54:00;;;;;;;37.63;16.80;;;;;;;;;;5069405;28;20505;-70
2023/10/23 09:56:30;;;;;;;42.75;18.33;;;;;;;;;;5070899;28;20056;-70
2023/10/23 09:59:00;;;;;;;47.10;19.13;;;;;;;;;;5072256;28;20115;-69
2023/10/23 10:01:36;;;;;;;39.30;19.08;;;;;;;;;;5066023;28;20169;-69
2023/10/23 10:04:10;;;;;;;40.97;19.88;;;;;;;;;;5073898;28;20044;-69
2023/10/23 10:06:38;;;;;;;48.38;21.13;;;;;;;;;;5074136;28;20094;-69
2023/10/23 10:09:11;;;;;;;50.33;21.00;;;;;;;;;;5073548;28;20045;-69
2023/10/23 10:11:37;;;;;;;73.00;26.27;;;;;;;;;;5071434;28;20044;-69
2023/10/23 10:14:04;;;;;;;47.63;21.13;;;;;;;;;;5072825;28;20033;-69
2023/10/23 10:16:30;;;;;;;46.00;20.55;;;;;;;;;;5072768;28;20133;-69
2023/10/23 10:18:56;;;;;;;43.28;20.88;;;;;;;;;;5071822;28;20036;-69
2023/10/23 10:21:23;;;;;;;47.20;21.33;;;;;;;;;;5073063;28;20029;-69
2023/10/23 10:23:51;;;;;;;51.20;20.42;;;;;;;;;;5073598;28;20691;-69
2023/10/23 10:26:18;;;;;;;47.65;20.63;;;;;;;;;;5073037;28;20044;-69
2023/10/23 10:28:51;;;;;;;47.00;21.90;;;;;;;;;;5072026;28;20455;-69
2023/10/23 10:31:17;;;;;;;51.42;23.15;;;;;;;;;;5071978;28;20036;-69
2023/10/23 10:33:43;;;;;;;45.85;22.33;;;;;;;;;;5071928;28;20040;-69
2023/10/23 10:36:11;;;;;;;51.90;22.13;;;;;;;;;;5069914;28;20512;-69
2023/10/23 10:38:37;;;;;;;47.05;21.35;;;;;;;;;;5064812;28;20033;-69
2023/10/23 10:41:04;;;;;;;53.45;23.80;;;;;;;;;;5072237;28;20115;-69
2023/10/23 10:43:34;;;;;;;49.60;24.30;;;;;;;;;;5072818;28;20036;-69
2023/10/23 10:46:04;;;;;;;56.67;25.70;;;;;;;;;;5072162;28;20037;-69
2023/10/23 10:48:50;;;;;;;54.08;25.02;;;;;;;;;;5065019;28;20051;-69
2023/10/23 10:51:17;;;;;;;56.70;25.75;;;;;;;;;;5056263;28;20519;-69
2023/10/23 10:53:44;;;;;;;56.05;25.75;;;;;;;;;;5071612;28;20033;-69
2023/10/23 10:56:10;;;;;;;52.55;25.35;;;;;;;;;;5072198;28;20089;-69
2023/10/23 10:58:39;;;;;;;53.20;24.90;;;;;;;;;;5069107;28;20040;-69
2023/10/23 11:01:05;;;;;;;51.80;24.88;;;;;;;;;;5068734;28;20036;-69
2023/10/23 11:03:31;;;;;;;57.25;25.45;;;;;;;;;;5070801;28;20041;-69
2023/10/23 11:05:57;;;;;;;52.95;25.90;;;;;;;;;;5071297;28;20100;-69
2023/10/23 11:08:23;;;;;;;52.90;25.73;;;;;;;;;;5072443;28;20119;-69
2023/10/23 11:10:49;;;;;;;50.95;27.17;;;;;;;;;;5071077;28;20052;-69
2023/10/23 11:13:15;;;;;;;53.97;26.73;;;;;;;;;;5072776;28;20045;-69
2023/10/23 11:15:42;;;;;;;51.42;25.58;;;;;;;;;;5053365;28;20402;-69
2023/10/23 11:18:08;;;;;;;51.05;26.10;;;;;;;;;;5070041;28;20036;-69
2023/10/23 11:20:41;;;;;;;48.97;26.15;;;;;;;;;;5123201;27;20382;-68
2023/10/23 11:23:06;;;;;;;46.35;25.38;;;;;;;;;;5129828;27;20043;-68
2023/10/23 11:25:34;;;;;;;46.65;24.27;;;;;;;;;;5113572;28;20401;-68
2023/10/23 11:28:05;;;;;;;50.22;25.90;;;;;;;;;;5108221;27;20040;-70
2023/10/23 11:30:31;;;;;;;44.35;23.20;;;;;;;;;;5084750;28;20410;-70
2023/10/23 11:32:57;;;;;;;42.00;22.15;;;;;;;;;;5089055;28;20066;-69
2023/10/23 11:35:23;;;;;;;43.88;24.50;;;;;;;;;;5092095;28;20417;-69
2023/10/23 11:37:49;;;;;;;47.28;24.20;;;;;;;;;;5090011;28;20044;-69
2023/10/23 11:40:19;;;;;;;39.95;22.02;;;;;;;;;;5089394;28;20142;-69
2023/10/23 11:42:47;;;;;;;37.50;20.55;;;;;;;;;;5103140;28;20047;-69
2023/10/23 11:45:13;;;;;;;40.70;22.30;;;;;;;;;;5100272;28;20124;-69
2023/10/23 11:47:40;;;;;;;37.97;21.83;;;;;;;;;;5089223;28;20040;-69
2023/10/23 11:50:09;;;;;;;35.47;22.10;;;;;;;;;;5086284;28;20078;-69
2023/10/23 11:52:35;;;;;;;36.63;21.92;;;;;;;;;;5088229;28;20044;-69
2023/10/23 11:55:01;;;;;;;41.15;25.40;;;;;;;;;;5105054;28;20050;-69
2023/10/23 11:57:27;;;;;;;35.15;20.92;;;;;;;;;;5106986;28;20040;-69
2023/10/23 11:59:53;;;;;;;34.05;19.50;;;;;;;;;;5094278;28;20067;-69
2023/10/23 12:02:19;;;;;;;37.72;21.50;;;;;;;;;;5109101;28;20048;-69
2023/10/23 12:04:45;;;;;;;35.80;20.90;;;;;;;;;;5109073;28;20040;-69
2023/10/23 12:07:11;;;;;;;34.42;20.35;;;;;;;;;;5088778;28;20546;-69
2023/10/23 12:09:37;;;;;;;35.00;20.67;;;;;;;;;;5087863;28;20040;-69
2023/10/23 12:12:04;;;;;;;34.72;20.90;;;;;;;;;;5090816;28;20102;-69
2023/10/23 12:14:30;;;;;;;32.15;19.75;;;;;;;;;;5087483;28;20032;-69
2023/10/23 12:16:56;;;;;;;36.10;20.98;;;;;;;;;;5087268;28;20097;-69
2023/10/23 12:19:22;;;;;;;33.92;19.77;;;;;;;;;;5088652;28;20139;-69
2023/10/23 12:21:47;;;;;;;36.42;20.45;;;;;;;;;;5095588;28;20090;-69
2023/10/23 12:24:13;;;;;;;33.22;19.42;;;;;;;;;;5095308;28;20036;-69
2023/10/23 12:26:40;;;;;;;32.88;18.85;;;;;;;;;;5093101;28;20036;-69
2023/10/23 12:29:07;;;;;;;30.08;18.88;;;;;;;;;;5097645;28;21101;-69
2023/10/23 12:31:33;;;;;;;28.63;18.02;;;;;;;;;;5075497;28;20051;-69
2023/10/23 12:33:59;;;;;;;30.67;18.40;;;;;;;;;;5073887;28;20041;-69
2023/10/23 12:36:25;;;;;;;31.40;19.02;;;;;;;;;;5073987;28;20043;-69
2023/10/23 12:38:51;;;;;;;30.55;17.55;;;;;;;;;;5070762;28;20127;-69
2023/10/23 12:41:17;;;;;;;29.17;17.98;;;;;;;;;;5073235;28;20032;-69
2023/10/23 12:43:42;;;;;;;29.55;19.10;;;;;;;;;;5077271;28;20491;-69
2023/10/23 12:46:09;;;;;;;33.13;20.25;;;;;;;;;;5076027;28;20044;-70
2023/10/23 12:48:35;;;;;;;31.85;20.50;;;;;;;;;;5071710;28;20040;-70
2023/10/23 12:51:01;;;;;;;33.95;19.95;;;;;;;;;;5074182;28;20161;-70
2023/10/23 12:53:27;;;;;;;30.80;19.38;;;;;;;;;;5070238;28;20183;-70
2023/10/23 12:55:53;;;;;;;33.38;20.88;;;;;;;;;;5068013;28;20041;-70
2023/10/23 12:58:19;;;;;;;31.48;20.92;;;;;;;;;;5070561;28;20037;-70
2023/10/23 13:00:45;;;;;;;34.95;21.13;;;;;;;;;;5073889;28;20028;-70
2023/10/23 13:03:11;;;;;;;34.45;20.80;;;;;;;;;;5071587;28;20141;-70
2023/10/23 13:05:37;;;;;;;33.70;20.08;;;;;;;;;;5069010;28;20041;-70
2023/10/23 13:08:03;;;;;;;34.63;20.30;;;;;;;;;;5071944;28;20033;-70
2023/10/23 13:10:29;;;;;;;36.63;20.67;;;;;;;;;;5071869;28;20086;-70
2023/10/23 13:12:55;;;;;;;35.58;21.45;;;;;;;;;;5073924;28;20044;-70
2023/10/23 13:15:21;;;;;;;33.35;20.75;;;;;;;;;;5079214;28;20043;-70
2023/10/23 13:17:47;;;;;;;33.65;22.02;;;;;;;;;;5073613;28;20041;-70
2023/10/23 13:20:13;;;;;;;38.63;22.45;;;;;;;;;;5067835;28;20040;-70
2023/10/23 13:22:39;;;;;;;35.25;21.33;;;;;;;;;;5071876;28;20041;-69
2023/10/23 13:25:05;;;;;;;39.38;22.73;;;;;;;;;;5071491;28;20448;-69
2023/10/23 13:27:31;;;;;;;36.65;22.48;;;;;;;;;;5073583;28;20538;-69
2023/10/23 13:29:57;;;;;;;38.70;21.50;;;;;;;;;;5077165;28;20115;-69
2023/10/23 13:32:23;;;;;;;36.95;21.13;;;;;;;;;;5076076;28;20540;-69
2023/10/23 13:34:49;;;;;;;38.00;21.58;;;;;;;;;;5085519;28;20044;-69
2023/10/23 13:37:15;;;;;;;32.63;20.83;;;;;;;;;;5093310;28;20410;-69
2023/10/23 13:39:41;;;;;;;34.03;21.63;;;;;;;;;;5084360;28;20075;-69
2023/10/23 13:42:07;;;;;;;35.15;22.20;;;;;;;;;;5083904;28;20043;-69
2023/10/23 13:44:33;;;;;;;39.80;22.42;;;;;;;;;;5086362;28;20086;-69
2023/10/23 13:46:59;;;;;;;43.28;24.52;;;;;;;;;;5073368;28;20043;-69
2023/10/23 13:49:25;;;;;;;47.90;26.20;;;;;;;;;;5088921;28;20051;-68
2023/10/23 13:51:51;;;;;;;55.15;28.60;;;;;;;;;;5071847;28;20082;-68
2023/10/23 13:54:17;;;;;;;55.78;31.30;;;;;;;;;;5072023;28;20051;-68
2023/10/23 13:56:43;;;;;;;61.55;31.70;;;;;;;;;;5072331;28;20036;-68
2023/10/23 13:59:09;;;;;;;58.75;31.50;;;;;;;;;;5078219;28;20123;-68
2023/10/23 14:01:35;;;;;;;59.15;32.03;;;;;;;;;;5076933;28;20525;-68
2023/10/23 14:04:01;;;;;;;60.42;31.23;;;;;;;;;;5080127;28;20498;-68
2023/10/23 14:06:27;;;;;;;55.75;29.13;;;;;;;;;;5083124;28;20048;-68
2023/10/23 14:08:56;;;;;;;51.33;27.52;;;;;;;;;;5080800;28;20086;-68
2023/10/23 14:11:22;;;;;;;52.45;28.25;;;;;;;;;;5070296;28;20127;-68
2023/10/23 14:13:48;;;;;;;46.90;26.05;;;;;;;;;;5071963;28;20098;-69
2023/10/23 14:16:14;;;;;;;44.38;25.13;;;;;;;;;;5082184;28;20044;-69
2023/10/23 14:18:40;;;;;;;42.97;25.08;;;;;;;;;;5075053;28;20051;-69
2023/10/23 14:21:07;;;;;;;44.58;23.80;;;;;;;;;;5080648;28;20028;-69
2023/10/23 14:23:32;;;;;;;39.95;23.95;;;;;;;;;;5070820;28;20408;-69